Time;durP1;ratioP1;P1;durP2;ratioP2;P2;SDS_P1;SDS_P2;PMS_P1;PMS_P2;Temp;Humidity;BMP_temperature;BMP_pressure;BME280_temperature;BME280_humidity;BME280_pressure;Samples;Min_cycle;Max_cycle;Signal;HPM_P1;HPM_P2
2022/07/15 00:05:01;;;;;;;;;;;;;;;20.27;59.52;100176.38;10505337;28;20461;-66
2022/07/15 00:10:20;;;;;;;;;;;;;;;20.23;59.64;100182.72;10505226;28;19967;-67
2022/07/15 00:15:25;;;;;;;;;;;;;;;20.19;60.23;100181.16;10505191;28;20031;-66
2022/07/15 00:20:33;;;;;;;;;;;;;;;20.25;60.32;100185.28;10504773;28;20314;-66
2022/07/15 00:25:36;;;;;;;;;;;;;;;20.22;60.30;100196.00;10504856;28;19967;-67
2022/07/15 00:30:41;;;;;;;;;;;;;;;20.15;60.59;100202.47;10503510;28;20022;-66
2022/07/15 00:35:48;;;;;;;;;;;;;;;20.13;60.59;100199.91;10504154;28;20409;-67
2022/07/15 00:40:51;;;;;;;;;;;;;;;20.05;61.22;100201.25;10504295;28;20398;-68
2022/07/15 00:45:54;;;;;;;;;;;;;;;20.05;61.87;100194.16;10503881;28;20320;-69
2022/07/15 00:50:59;;;;;;;;;;;;;;;20.01;61.86;100200.56;10503705;28;20254;-67
2022/07/15 00:56:03;;;;;;;;;;;;;;;19.93;62.61;100200.06;10503445;28;19924;-68
2022/07/15 01:01:08;;;;;;;;;;;;;;;19.90;62.71;100210.78;10503192;28;20364;-66
2022/07/15 01:06:13;;;;;;;;;;;;;;;19.88;62.29;100199.44;10503009;28;20364;-65
2022/07/15 01:11:16;;;;;;;;;;;;;;;19.90;62.71;100194.09;10502870;28;19925;-65
2022/07/15 01:16:19;;;;;;;;;;;;;;;19.93;63.45;100194.78;10502560;28;19934;-65
2022/07/15 01:21:23;;;;;;;;;;;;;;;19.85;63.30;100196.97;10502193;28;20103;-65
2022/07/15 01:26:26;;;;;;;;;;;;;;;19.82;63.39;100194.50;10502190;28;20086;-68
2022/07/15 01:31:29;;;;;;;;;;;;;;;19.86;63.05;100190.81;10501811;28;20019;-67
2022/07/15 01:36:34;;;;;;;;;;;;;;;19.83;63.75;100193.56;10501797;28;20003;-65
2022/07/15 01:41:37;;;;;;;;;;;;;;;19.74;63.71;100178.25;10501490;28;20357;-67
2022/07/15 01:46:40;;;;;;;;;;;;;;;19.69;64.49;100196.03;10501604;28;20305;-66
2022/07/15 01:51:45;;;;;;;;;;;;;;;19.65;64.27;100194.50;10501525;28;20359;-69
2022/07/15 01:56:48;;;;;;;;;;;;;;;19.54;64.12;100199.44;10501331;28;20310;-72
2022/07/15 02:01:52;;;;;;;;;;;;;;;19.42;64.20;100203.53;10501436;28;19952;-66
2022/07/15 02:06:56;;;;;;;;;;;;;;;19.38;64.49;100211.63;10501270;28;19924;-68
2022/07/15 02:11:59;;;;;;;;;;;;;;;19.32;64.74;100209.31;10500975;28;20349;-68
2022/07/15 02:17:02;;;;;;;;;;;;;;;19.27;64.75;100206.00;10500790;28;20227;-67
2022/07/15 02:22:07;;;;;;;;;;;;;;;19.20;64.94;100209.88;10500770;28;19925;-67
2022/07/15 02:27:09;;;;;;;;;;;;;;;19.14;65.41;100212.75;10500882;28;19924;-63
2022/07/15 02:32:12;;;;;;;;;;;;;;;19.05;65.96;100214.06;10501008;28;19931;-67
2022/07/15 02:37:17;;;;;;;;;;;;;;;19.00;66.01;100215.22;10500620;28;19951;-64
2022/07/15 02:42:25;;;;;;;;;;;;;;;18.96;66.62;100219.78;10500366;28;20292;-66
2022/07/15 02:47:28;;;;;;;;;;;;;;;18.90;66.89;100230.56;10500371;28;19925;-66
2022/07/15 02:52:32;;;;;;;;;;;;;;;18.86;67.48;100236.88;10502014;28;19924;-70
2022/07/15 02:57:36;;;;;;;;;;;;;;;18.83;67.46;100241.41;10508049;28;20250;-65
2022/07/15 03:02:39;;;;;;;;;;;;;;;18.76;68.48;100245.28;10507780;28;19925;-66
2022/07/15 03:07:43;;;;;;;;;;;;;;;18.70;68.12;100243.78;10508054;28;20354;-66
2022/07/15 03:12:46;;;;;;;;;;;;;;;18.66;68.36;100243.97;10507871;28;19924;-68
2022/07/15 03:17:49;;;;;;;;;;;;;;;18.64;67.85;100249.28;10507422;28;19924;-68
2022/07/15 03:22:54;;;;;;;;;;;;;;;18.62;67.72;100243.25;10507006;28;20280;-66
2022/07/15 03:27:57;;;;;;;;;;;;;;;18.60;67.82;100257.41;10506811;28;19931;-67
2022/07/15 03:32:59;;;;;;;;;;;;;;;18.55;67.73;100260.22;10506809;28;19924;-67
2022/07/15 03:38:04;;;;;;;;;;;;;;;18.54;67.87;100260.28;10506682;28;19950;-66
2022/07/15 03:43:07;;;;;;;;;;;;;;;18.54;67.72;100258.50;10506526;28;19935;-66
2022/07/15 03:48:10;;;;;;;;;;;;;;;18.56;67.19;100253.19;10505976;28;19924;-65
2022/07/15 03:53:14;;;;;;;;;;;;;;;18.56;67.27;100263.69;10506099;28;19929;-63
2022/07/15 03:58:17;;;;;;;;;;;;;;;18.59;67.83;100260.94;10506076;28;19931;-65
2022/07/15 04:03:20;;;;;;;;;;;;;;;18.56;67.21;100269.81;10505696;28;19942;-65
2022/07/15 04:08:25;;;;;;;;;;;;;;;18.54;66.32;100263.78;10505457;28;19935;-65
2022/07/15 04:13:28;;;;;;;;;;;;;;;18.60;66.71;100254.75;10504997;28;19935;-66
2022/07/15 04:18:31;;;;;;;;;;;;;;;18.60;66.12;100258.25;10504832;28;20345;-65
2022/07/15 04:23:37;;;;;;;;;;;;;;;18.61;65.15;100269.59;10504360;28;19924;-70
2022/07/15 04:28:40;;;;;;;;;;;;;;;18.59;64.96;100268.81;10504692;28;19928;-65
2022/07/15 04:33:43;;;;;;;;;;;;;;;18.61;64.90;100273.09;10504437;28;19931;-65
2022/07/15 04:38:48;;;;;;;;;;;;;;;18.64;64.22;100269.50;10504045;28;20372;-65
2022/07/15 04:43:51;;;;;;;;;;;;;;;18.69;64.21;100272.78;10504010;28;19924;-70
2022/07/15 04:54:15;;;;;;;;;;;;;;;18.74;63.71;100276.03;10503440;28;19935;-68
2022/07/15 04:59:18;;;;;;;;;;;;;;;18.73;62.89;100284.84;10503124;28;20241;-70
2022/07/15 05:04:21;;;;;;;;;;;;;;;18.75;62.64;100290.88;10503109;28;19924;-67
2022/07/15 05:09:26;;;;;;;;;;;;;;;18.82;62.26;100292.31;10502968;28;19926;-68
2022/07/15 05:14:29;;;;;;;;;;;;;;;18.85;61.99;100300.94;10502518;28;19934;-69
2022/07/15 05:19:32;;;;;;;;;;;;;;;18.88;61.86;100311.31;10502794;28;19951;-65
2022/07/15 05:24:36;;;;;;;;;;;;;;;18.93;61.47;100313.75;10502150;28;19936;-68
2022/07/15 05:29:39;;;;;;;;;;;;;;;19.00;60.94;100318.66;10502390;28;19925;-64
2022/07/15 05:34:42;;;;;;;;;;;;;;;19.04;60.24;100327.25;10502324;28;20265;-66
2022/07/15 05:39:54;;;;;;;;;;;;;;;19.01;59.77;100328.28;10502233;28;19980;-65
2022/07/15 05:44:57;;;;;;;;;;;;;;;19.08;59.62;100342.00;10501506;28;19924;-65
2022/07/15 05:50:00;;;;;;;;;;;;;;;19.20;59.37;100347.56;10501501;28;20333;-65
2022/07/15 05:55:05;;;;;;;;;;;;;;;19.15;59.20;100352.19;10501744;28;19929;-65
2022/07/15 06:00:09;;;;;;;;;;;;;;;19.16;59.32;100363.53;10501324;28;20260;-71
2022/07/15 06:05:12;;;;;;;;;;;;;;;19.13;59.80;100361.91;10501223;28;19924;-67
2022/07/15 06:10:16;;;;;;;;;;;;;;;19.21;60.60;100366.81;10500928;28;20222;-69
2022/07/15 06:15:19;;;;;;;;;;;;;;;19.18;60.92;100372.22;10500944;28;19925;-65
2022/07/15 06:20:23;;;;;;;;;;;;;;;19.29;61.79;100377.88;10500762;28;20264;-66
2022/07/15 06:25:27;;;;;;;;;;;;;;;19.28;61.68;100384.91;10500955;28;19934;-68
2022/07/15 06:30:30;;;;;;;;;;;;;;;19.15;62.80;100382.91;10507730;28;19931;-64
2022/07/15 06:35:33;;;;;;;;;;;;;;;18.99;63.23;100395.88;10508968;28;20350;-68
2022/07/15 06:40:38;;;;;;;;;;;;;;;19.08;63.92;100392.00;10509132;28;19935;-65
2022/07/15 06:45:41;;;;;;;;;;;;;;;19.08;64.05;100403.38;10508775;28;19924;-67
2022/07/15 06:50:44;;;;;;;;;;;;;;;19.20;64.23;100409.88;10508445;28;19939;-65
2022/07/15 06:55:48;;;;;;;;;;;;;;;19.19;64.54;100414.25;10508097;28;19928;-64
2022/07/15 07:00:51;;;;;;;;;;;;;;;19.16;65.03;100403.88;10508063;28;20296;-67
2022/07/15 07:05:55;;;;;;;;;;;;;;;19.10;65.31;100408.56;10507678;28;19938;-66
2022/07/15 07:10:59;;;;;;;;;;;;;;;19.13;65.72;100401.38;10507659;28;19931;-67
2022/07/15 07:16:04;;;;;;;;;;;;;;;19.21;65.71;100408.94;10507391;28;19934;-66
2022/07/15 07:21:07;;;;;;;;;;;;;;;19.22;64.96;100400.97;10506660;28;19924;-69
2022/07/15 07:26:12;;;;;;;;;;;;;;;19.48;64.44;100410.38;10504709;28;19924;-68
2022/07/15 07:31:15;;;;;;;;;;;;;;;19.64;63.17;100408.72;10504537;28;19935;-67
2022/07/15 07:36:19;;;;;;;;;;;;;;;19.59;63.01;100417.78;10504407;28;20355;-68
2022/07/15 07:41:23;;;;;;;;;;;;;;;19.57;63.36;100417.00;10503885;28;19924;-66
2022/07/15 07:46:26;;;;;;;;;;;;;;;19.68;63.68;100407.66;10504124;28;19925;-66
2022/07/15 07:51:29;;;;;;;;;;;;;;;19.65;63.09;100405.19;10503885;28;19924;-67
2022/07/15 07:56:33;;;;;;;;;;;;;;;19.78;62.78;100416.84;10503646;28;20252;-69
2022/07/15 08:01:36;;;;;;;;;;;;;;;19.75;63.51;100419.63;10503476;28;19924;-67
2022/07/15 08:06:39;;;;;;;;;;;;;;;19.67;63.57;100427.03;10503436;28;20307;-65
2022/07/15 08:11:44;;;;;;;;;;;;;;;19.58;64.02;100434.50;10503169;28;19930;-64
2022/07/15 08:16:47;;;;;;;;;;;;;;;19.55;63.27;100438.97;10502839;28;20253;-70
2022/07/15 08:21:50;;;;;;;;;;;;;;;19.46;63.58;100430.66;10441501;28;1742943;-70
2022/07/15 08:26:55;;;;;;;;;;;;;;;19.53;63.42;100458.41;10504667;28;20019;-69
2022/07/15 08:31:58;;;;;;;;;;;;;;;19.48;63.46;100449.88;10504400;28;19925;-66
2022/07/15 08:37:01;;;;;;;;;;;;;;;19.68;61.07;100452.44;10504570;28;19925;-66
2022/07/15 08:42:05;;;;;;;;;;;;;;;19.64;60.16;100456.13;10504207;28;19935;-65
2022/07/15 08:47:08;;;;;;;;;;;;;;;19.57;58.90;100459.97;10503951;28;19924;-69
2022/07/15 08:52:33;;;;;;;;;;;;;;;19.62;57.91;100465.03;10502826;28;19924;-68
2022/07/15 08:57:37;;;;;;;;;;;;;;;19.68;55.89;100470.00;10503420;28;19924;-66
2022/07/15 09:02:46;;;;;;;;;;;;;;;19.96;55.41;100463.41;10503422;28;19940;-65
2022/07/15 09:07:54;;;;;;;;;;;;;;;20.01;54.87;100465.81;10502905;28;20222;-69
2022/07/15 09:12:58;;;;;;;;;;;;;;;19.88;54.66;100465.53;10502844;28;19924;-69
2022/07/15 09:18:10;;;;;;;;;;;;;;;19.98;53.79;100461.56;10502614;28;19928;-71
2022/07/15 09:23:17;;;;;;;;;;;;;;;20.04;53.38;100460.41;10502219;28;19936;-68
2022/07/15 09:28:22;;;;;;;;;;;;;;;20.27;53.49;100469.00;10502268;28;20349;-67
2022/07/15 09:33:35;;;;;;;;;;;;;;;20.17;53.65;100478.22;10502353;28;19935;-67
2022/07/15 09:38:43;;;;;;;;;;;;;;;20.10;53.22;100481.22;10501900;28;19934;-66
2022/07/15 09:43:49;;;;;;;;;;;;;;;20.58;52.83;100479.75;10501666;28;19929;-67
2022/07/15 09:48:53;;;;;;;;;;;;;;;20.69;52.18;100466.88;10501672;28;20257;-69
2022/07/15 09:53:56;;;;;;;;;;;;;;;20.74;52.16;100463.16;10501636;28;19925;-68
2022/07/15 09:59:05;;;;;;;;;;;;;;;20.65;51.90;100475.03;10501394;28;20313;-68
2022/07/15 10:04:09;;;;;;;;;;;;;;;21.43;50.98;100476.25;10501195;28;19925;-65
2022/07/15 10:09:12;;;;;;;;;;;;;;;31.12;34.26;100449.97;10501123;28;19925;-68
2022/07/15 10:14:32;;;;;;;;;;;;;;;27.04;37.71;100455.72;10501083;28;19924;-64
2022/07/15 10:19:48;;;;;;;;;;;;;;;24.59;42.19;100472.38;10501509;28;19925;-69
2022/07/15 10:25:03;;;;;;;;;;;;;;;24.50;42.56;100467.69;10500506;28;19935;-67
2022/07/15 10:30:08;;;;;;;;;;;;;;;22.84;43.69;100472.78;10501054;28;19924;-67
2022/07/15 10:35:26;;;;;;;;;;;;;;;22.63;44.39;100483.75;10500641;28;19935;-67
2022/07/15 10:40:44;;;;;;;;;;;;;;;23.56;43.54;100466.66;10500856;28;20329;-67
2022/07/15 10:46:02;;;;;;;;;;;;;;;24.28;41.87;100467.34;10500160;28;19928;-65
2022/07/15 10:51:06;;;;;;;;;;;;;;;23.49;42.43;100483.88;10500428;28;19962;-65
2022/07/15 10:56:28;;;;;;;;;;;;;;;23.12;43.08;100482.59;10500359;28;19925;-72
2022/07/15 11:01:31;;;;;;;;;;;;;;;23.03;44.09;100490.22;10500146;28;19925;-68
2022/07/15 11:06:56;;;;;;;;;;;;;;;23.55;43.84;100481.75;10500128;28;19934;-67
2022/07/15 11:11:59;;;;;;;;;;;;;;;23.79;43.24;100485.53;10499801;28;19931;-65
2022/07/15 11:17:05;;;;;;;;;;;;;;;24.18;42.80;100484.00;10507064;28;19935;-66
2022/07/15 11:22:10;;;;;;;;;;;;;;;24.13;41.47;100483.41;10507049;28;19928;-67
2022/07/15 11:27:13;;;;;;;;;;;;;;;24.40;41.34;100487.78;10507243;28;20257;-69
2022/07/15 11:32:17;;;;;;;;;;;;;;;24.61;40.75;100488.22;10506648;28;19924;-66
2022/07/15 11:37:25;;;;;;;;;;;;;;;24.63;41.11;100495.13;10506737;28;19935;-68
2022/07/15 11:47:52;;;;;;;;;;;;;;;24.89;40.55;100518.19;10506494;28;19924;-70
2022/07/15 11:52:58;;;;;;;;;;;;;;;25.03;39.82;100499.53;10506079;28;20333;-68
2022/07/15 11:58:01;;;;;;;;;;;;;;;25.35;37.02;100528.38;10505711;28;19925;-69
2022/07/15 12:03:11;;;;;;;;;;;;;;;25.95;37.67;100503.72;10505537;28;19931;-67
2022/07/15 12:08:33;;;;;;;;;;;;;;;25.82;37.19;100502.88;10505582;28;19924;-68
2022/07/15 12:13:43;;;;;;;;;;;;;;;26.09;36.77;100510.75;10505588;28;19934;-68
2022/07/15 12:18:46;;;;;;;;;;;;;;;26.45;36.66;100504.56;10504599;28;20357;-69
2022/07/15 12:24:04;;;;;;;;;;;;;;;26.68;34.77;100533.91;10504156;28;20235;-66
2022/07/15 12:29:09;;;;;;;;;;;;;;;26.68;34.70;100517.91;10504440;28;20330;-71
2022/07/15 12:34:12;;;;;;;;;;;;;;;26.98;34.54;100520.97;10504328;28;20024;-65
2022/07/15 12:39:18;;;;;;;;;;;;;;;26.86;34.02;100532.56;10504192;28;19924;-67
2022/07/15 12:44:23;;;;;;;;;;;;;;;27.10;33.51;100528.06;10503993;28;19936;-69
2022/07/15 12:49:47;;;;;;;;;;;;;;;26.93;33.21;100528.47;10503819;28;20333;-66
2022/07/15 12:54:52;;;;;;;;;;;;;;;27.14;32.97;100520.66;10503684;28;19924;-71
2022/07/15 12:59:57;;;;;;;;;;;;;;;27.05;33.32;100516.88;10503480;28;19935;-65
2022/07/15 13:05:00;;;;;;;;;;;;;;;27.09;33.42;100523.66;10503213;28;20252;-68
2022/07/15 13:10:06;;;;;;;;;;;;;;;27.51;32.76;100530.25;10502904;28;19934;-69
2022/07/15 13:15:09;;;;;;;;;;;;;;;27.27;33.29;100527.63;10502777;28;19928;-72
2022/07/15 13:20:13;;;;;;;;;;;;;;;27.25;32.93;100534.03;10502754;28;20025;-68
2022/07/15 13:25:18;;;;;;;;;;;;;;;26.89;33.63;100537.66;10502342;28;19925;-65
2022/07/15 13:30:21;;;;;;;;;;;;;;;26.96;33.74;100538.88;10502072;28;19925;-65
2022/07/15 13:35:24;;;;;;;;;;;;;;;26.95;33.75;100557.66;10501581;28;20341;-69
2022/07/15 13:40:28;;;;;;;;;;;;;;;26.62;34.58;100552.13;10502272;28;19934;-68
2022/07/15 13:45:31;;;;;;;;;;;;;;;26.57;34.30;100551.59;10501758;28;19924;-70
2022/07/15 13:55:56;;;;;;;;;;;;;;;26.54;34.24;100554.50;10501512;28;19924;-66
2022/07/15 14:00:59;;;;;;;;;;;;;;;25.25;35.96;100545.91;10501352;28;19935;-70
2022/07/15 14:06:03;;;;;;;;;;;;;;;25.32;36.29;100571.94;10501425;28;19924;-67
2022/07/15 14:11:07;;;;;;;;;;;;;;;25.57;36.09;100558.75;10501402;28;20019;-70
2022/07/15 14:16:10;;;;;;;;;;;;;;;25.14;36.22;100574.03;10500760;28;19939;-68
2022/07/15 14:21:15;;;;;;;;;;;;;;;25.05;37.21;100582.63;10500739;28;20242;-68
2022/07/15 14:26:19;;;;;;;;;;;;;;;25.18;36.80;100569.38;10501027;28;19946;-67
2022/07/15 14:31:23;;;;;;;;;;;;;;;25.43;36.72;100572.13;10501037;28;19934;-67
2022/07/15 14:36:26;;;;;;;;;;;;;;;25.57;36.48;100595.13;10500661;28;20356;-69
2022/07/15 14:41:31;;;;;;;;;;;;;;;25.01;37.01;100573.16;10500599;28;19939;-67
2022/07/15 14:46:34;;;;;;;;;;;;;;;24.54;38.37;100569.22;10500399;28;19935;-68
2022/07/15 14:51:37;;;;;;;;;;;;;;;24.61;38.38;100576.66;10507247;28;19924;-68
2022/07/15 14:56:41;;;;;;;;;;;;;;;24.88;37.99;100590.88;10508193;28;19964;-67
2022/07/15 15:01:44;;;;;;;;;;;;;;;24.50;37.85;100597.75;10507900;28;19935;-67
2022/07/15 15:06:48;;;;;;;;;;;;;;;24.33;37.86;100597.09;10507522;28;19924;-67
2022/07/15 15:11:52;;;;;;;;;;;;;;;24.31;38.52;100607.81;10507900;28;19931;-68
2022/07/15 15:16:56;;;;;;;;;;;;;;;24.31;38.83;100596.34;10507401;28;20268;-70
2022/07/15 15:22:05;;;;;;;;;;;;;;;23.77;38.91;100612.03;10507594;28;19924;-67
2022/07/15 15:27:10;;;;;;;;;;;;;;;23.72;39.00;100622.06;10507065;28;20337;-68
2022/07/15 15:32:15;;;;;;;;;;;;;;;23.78;39.89;100620.84;10507921;28;20397;-69
2022/07/15 15:37:18;;;;;;;;;;;;;;;23.61;39.82;100619.16;10506931;28;19935;-68
2022/07/15 15:42:22;;;;;;;;;;;;;;;23.67;40.45;100618.81;10506545;28;19925;-66
2022/07/15 15:47:26;;;;;;;;;;;;;;;23.57;40.59;100615.00;10506113;28;19925;-69
2022/07/15 15:52:29;;;;;;;;;;;;;;;23.51;40.63;100618.03;10506007;28;19924;-67
2022/07/15 15:57:34;;;;;;;;;;;;;;;23.45;40.74;100612.22;10505785;28;19924;-67
2022/07/15 16:02:41;;;;;;;;;;;;;;;23.35;40.51;100605.78;10505771;28;19938;-67
2022/07/15 16:07:45;;;;;;;;;;;;;;;23.30;40.50;100610.47;10505624;28;20364;-67
2022/07/15 16:12:50;;;;;;;;;;;;;;;22.68;40.77;100625.47;10505305;28;19938;-67
2022/07/15 16:17:53;;;;;;;;;;;;;;;22.27;41.76;100618.03;10505121;28;20003;-70
2022/07/15 16:22:58;;;;;;;;;;;;;;;22.44;41.95;100613.53;10504810;28;19936;-67
2022/07/15 16:28:04;;;;;;;;;;;;;;;22.53;41.64;100613.03;10504722;28;19929;-70
2022/07/15 16:33:07;;;;;;;;;;;;;;;22.57;41.78;100609.31;10504636;28;19979;-69
2022/07/15 16:38:11;;;;;;;;;;;;;;;22.32;42.01;100616.84;10504271;28;20062;-67
2022/07/15 16:43:15;;;;;;;;;;;;;;;22.21;41.96;100621.84;10504457;28;19925;-68
2022/07/15 16:48:18;;;;;;;;;;;;;;;22.14;42.08;100625.75;10503997;28;20338;-67
2022/07/15 16:53:25;;;;;;;;;;;;;;;21.87;42.54;100629.88;10503612;28;19947;-66
2022/07/15 16:58:29;;;;;;;;;;;;;;;21.66;42.91;100630.94;10503238;28;20012;-68
2022/07/15 17:03:32;;;;;;;;;;;;;;;21.53;43.41;100621.94;10503551;28;19924;-68
2022/07/15 17:08:35;;;;;;;;;;;;;;;21.46;43.49;100633.75;10502534;28;20011;-71
2022/07/15 17:13:39;;;;;;;;;;;;;;;21.39;43.47;100633.19;10502140;28;19924;-70
2022/07/15 17:18:43;;;;;;;;;;;;;;;21.13;44.01;100631.00;10502552;28;19932;-69
2022/07/15 17:23:46;;;;;;;;;;;;;;;21.10;44.15;100630.28;10502289;28;19924;-71
2022/07/15 17:28:50;;;;;;;;;;;;;;;21.04;44.41;100627.94;10502701;28;20345;-68
2022/07/15 17:33:53;;;;;;;;;;;;;;;20.93;44.58;100628.44;10510017;28;19924;-68
2022/07/15 17:38:56;;;;;;;;;;;;;;;21.02;45.04;100621.88;10539610;28;19924;-63
2022/07/15 17:44:01;;;;;;;;;;;;;;;21.05;45.02;100625.25;10542943;28;20294;-68
2022/07/15 17:49:04;;;;;;;;;;;;;;;20.80;45.25;100629.06;10540557;28;20042;-66
2022/07/15 17:54:07;;;;;;;;;;;;;;;20.78;45.57;100644.16;10543173;28;19930;-68
2022/07/15 17:59:11;;;;;;;;;;;;;;;20.71;45.52;100638.28;10542658;28;19967;-65
2022/07/15 18:04:14;;;;;;;;;;;;;;;20.59;45.93;100639.72;10542970;28;19924;-65
2022/07/15 18:09:24;;;;;;;;;;;;;;;20.74;45.65;100640.78;10542077;28;20259;-67
2022/07/15 18:14:28;;;;;;;;;;;;;;;20.70;45.72;100641.84;10541900;28;19975;-68
2022/07/15 18:19:31;;;;;;;;;;;;;;;20.69;45.95;100645.44;10539291;28;19943;-67
2022/07/15 18:24:35;;;;;;;;;;;;;;;20.64;46.06;100648.25;10544306;28;19924;-68
2022/07/15 18:29:39;;;;;;;;;;;;;;;20.58;46.37;100648.56;10550316;28;20026;-72
2022/07/15 18:34:42;;;;;;;;;;;;;;;20.46;46.81;100651.78;10550077;28;19938;-64
2022/07/15 18:39:45;;;;;;;;;;;;;;;20.42;47.01;100667.78;10549817;28;19924;-65
2022/07/15 18:44:50;;;;;;;;;;;;;;;20.33;47.28;100666.41;10549367;28;20371;-68
2022/07/15 18:49:53;;;;;;;;;;;;;;;20.25;47.57;100676.47;10549352;28;19928;-67
2022/07/15 18:54:56;;;;;;;;;;;;;;;20.15;47.42;100687.44;10547948;28;19953;-62
2022/07/15 19:00:00;;;;;;;;;;;;;;;20.00;47.90;100686.31;10546361;28;20372;-64
2022/07/15 19:05:03;;;;;;;;;;;;;;;20.05;47.91;100684.34;10533482;28;20073;-67
2022/07/15 19:10:07;;;;;;;;;;;;;;;20.03;47.80;100693.25;10534748;28;20085;-65
2022/07/15 19:15:11;;;;;;;;;;;;;;;20.00;48.25;100688.97;10507346;28;19924;-65
2022/07/15 19:20:14;;;;;;;;;;;;;;;19.98;48.12;100690.84;10545353;28;19928;-67
2022/07/15 19:25:18;;;;;;;;;;;;;;;20.01;47.96;100693.31;10547955;28;20023;-65
2022/07/15 19:30:22;;;;;;;;;;;;;;;19.92;48.24;100698.13;10540912;28;20031;-66
2022/07/15 19:35:26;;;;;;;;;;;;;;;19.96;48.27;100697.94;10505879;28;19946;-65
2022/07/15 19:40:29;;;;;;;;;;;;;;;20.02;48.06;100694.19;10506619;28;19924;-65
2022/07/15 19:45:33;;;;;;;;;;;;;;;20.01;48.30;100692.47;10506426;28;19977;-66
2022/07/15 19:50:36;;;;;;;;;;;;;;;19.80;48.44;100702.13;10506246;28;19924;-64
2022/07/15 19:55:40;;;;;;;;;;;;;;;19.79;48.95;100704.84;10506101;28;19924;-67
2022/07/15 20:00:45;;;;;;;;;;;;;;;19.81;49.15;100706.47;10545775;28;19924;-65
2022/07/15 20:05:54;;;;;;;;;;;;;;;19.71;49.65;100714.84;10547731;28;20306;-64
2022/07/15 20:10:57;;;;;;;;;;;;;;;19.66;49.95;100717.66;10547379;28;20409;-64
2022/07/15 20:16:04;;;;;;;;;;;;;;;19.50;50.57;100724.47;10547122;28;20352;-63
2022/07/15 20:21:07;;;;;;;;;;;;;;;19.46;50.52;100725.53;10512915;28;20007;-66
2022/07/15 20:26:10;;;;;;;;;;;;;;;19.48;50.73;100721.06;10504869;28;20337;-63
2022/07/15 20:31:15;;;;;;;;;;;;;;;19.38;50.84;100725.81;10504745;28;19924;-65
2022/07/15 20:36:18;;;;;;;;;;;;;;;19.35;51.24;100725.97;10504648;28;19925;-64
2022/07/15 20:41:21;;;;;;;;;;;;;;;19.24;51.41;100719.38;10504574;28;19932;-63
2022/07/15 20:46:26;;;;;;;;;;;;;;;19.09;51.98;100722.59;10503570;28;19925;-66
2022/07/15 20:51:29;;;;;;;;;;;;;;;19.03;52.34;100722.84;10503938;28;19924;-63
2022/07/15 20:56:32;;;;;;;;;;;;;;;18.98;52.36;100719.53;10528264;28;20215;-65
2022/07/15 21:01:36;;;;;;;;;;;;;;;18.95;52.89;100722.25;10545319;28;20359;-64
2022/07/15 21:06:39;;;;;;;;;;;;;;;18.86;52.95;100725.28;10545046;28;19924;-62
2022/07/15 21:11:42;;;;;;;;;;;;;;;18.86;53.40;100725.28;10544915;28;19939;-62
2022/07/15 21:16:46;;;;;;;;;;;;;;;18.74;53.59;100731.84;10544014;28;20015;-66
2022/07/15 21:21:49;;;;;;;;;;;;;;;18.68;53.74;100729.44;10544330;28;19924;-64
2022/07/15 21:26:52;;;;;;;;;;;;;;;18.66;54.22;100736.53;10543740;28;19924;-62
2022/07/15 21:31:57;;;;;;;;;;;;;;;18.60;54.49;100733.28;10544147;28;19951;-65
2022/07/15 21:37:00;;;;;;;;;;;;;;;18.60;54.66;100735.91;10518646;28;19935;-65
2022/07/15 21:42:03;;;;;;;;;;;;;;;18.54;54.68;100736.97;10524652;28;19925;-65
2022/07/15 21:47:08;;;;;;;;;;;;;;;18.43;55.18;100740.00;10502834;28;20349;-64
2022/07/15 21:52:11;;;;;;;;;;;;;;;18.46;55.84;100743.44;10530281;28;20364;-65
2022/07/15 21:57:14;;;;;;;;;;;;;;;18.42;55.94;100732.16;10501433;28;19924;-66
2022/07/15 22:02:18;;;;;;;;;;;;;;;18.31;55.97;100737.78;10501370;28;19925;-67
2022/07/15 22:07:21;;;;;;;;;;;;;;;18.30;56.69;100732.56;10501333;28;19982;-65
2022/07/15 22:12:24;;;;;;;;;;;;;;;18.19;57.23;100738.22;10516319;28;19979;-67
2022/07/15 22:17:28;;;;;;;;;;;;;;;18.03;57.38;100739.63;10543058;28;19924;-65
2022/07/15 22:22:31;;;;;;;;;;;;;;;18.04;57.55;100745.75;10542582;28;19951;-66
2022/07/15 22:27:34;;;;;;;;;;;;;;;17.97;57.63;100742.50;10542677;28;19976;-65
2022/07/15 22:32:40;;;;;;;;;;;;;;;17.95;57.45;100733.81;10542418;28;19924;-65
2022/07/15 22:37:43;;;;;;;;;;;;;;;17.96;57.55;100725.03;10542541;28;19924;-65
2022/07/15 22:42:46;;;;;;;;;;;;;;;17.89;58.29;100731.41;10542235;28;20275;-65
2022/07/15 22:47:50;;;;;;;;;;;;;;;17.75;58.67;100731.00;10542178;28;20256;-66
2022/07/15 22:52:53;;;;;;;;;;;;;;;17.66;58.73;100733.94;10542247;28;19924;-63
2022/07/15 22:57:56;;;;;;;;;;;;;;;17.80;58.83;100731.69;10542076;28;20353;-68
2022/07/15 23:03:01;;;;;;;;;;;;;;;17.74;59.23;100734.53;10541927;28;19924;-64
2022/07/15 23:08:04;;;;;;;;;;;;;;;17.62;59.07;100736.72;10541870;28;19936;-66
2022/07/15 23:13:07;;;;;;;;;;;;;;;17.57;59.67;100741.25;10549447;28;19934;-65
2022/07/15 23:18:12;;;;;;;;;;;;;;;17.45;59.72;100741.63;10549570;28;20241;-65
2022/07/15 23:23:15;;;;;;;;;;;;;;;17.45;59.96;100747.69;10549001;28;19980;-64
2022/07/15 23:28:20;;;;;;;;;;;;;;;17.38;59.89;100740.94;10548970;28;19986;-65
2022/07/15 23:33:24;;;;;;;;;;;;;;;17.35;60.05;100743.66;10548507;28;19924;-69
2022/07/15 23:38:27;;;;;;;;;;;;;;;17.13;60.54;100740.84;10548574;28;19931;-67
2022/07/15 23:43:30;;;;;;;;;;;;;;;17.01;61.00;100740.38;10548352;28;19924;-66
2022/07/15 23:48:35;;;;;;;;;;;;;;;17.11;60.64;100739.19;10548063;28;20248;-63
2022/07/15 23:53:38;;;;;;;;;;;;;;;17.07;60.93;100741.03;10548285;28;19934;-62
2022/07/15 23:58:46;;;;;;;;;;;;;;;17.14;60.97;100739.06;10548226;28;20248;-62
